createdAt,value
2017-12-19T00:00:20.165Z,0
2017-12-19T00:01:20.450Z,0
2017-12-19T00:02:20.194Z,0
2017-12-19T00:03:20.471Z,0
2017-12-19T00:04:20.214Z,0
2017-12-19T00:05:20.496Z,0
2017-12-19T00:06:20.512Z,0
2017-12-19T00:07:20.239Z,0
2017-12-19T00:08:20.539Z,0
2017-12-19T00:09:20.260Z,0
2017-12-19T00:10:20.286Z,0
2017-12-19T00:11:20.009Z,0
2017-12-19T00:12:20.571Z,0
2017-12-19T00:13:20.585Z,0
2017-12-19T00:14:20.317Z,0
2017-12-19T00:15:20.328Z,0
2017-12-19T00:16:20.343Z,0
2017-12-19T00:17:20.635Z,0
2017-12-19T00:18:20.636Z,0
2017-12-19T00:19:20.380Z,0
2017-12-19T00:20:20.105Z,0
2017-12-19T00:21:20.672Z,0
2017-12-19T00:22:20.409Z,0
2017-12-19T00:23:20.418Z,0
2017-12-19T00:24:20.431Z,0
2017-12-19T00:25:20.719Z,0
2017-12-19T00:26:20.448Z,0
2017-12-19T00:27:20.739Z,0
2017-12-19T00:28:20.480Z,0
2017-12-19T00:29:20.481Z,0
2017-12-19T00:30:20.276Z,0
2017-12-19T00:31:20.791Z,0
2017-12-19T00:32:20.795Z,0
2017-12-19T00:33:20.532Z,0
2017-12-19T00:34:20.539Z,0
2017-12-19T00:35:20.933Z,0
2017-12-19T00:36:20.289Z,0
2017-12-19T00:37:20.899Z,0
2017-12-19T00:38:20.857Z,0
2017-12-19T00:39:20.872Z,0
2017-12-19T00:40:20.614Z,0
2017-12-19T00:41:20.891Z,0
2017-12-19T00:42:20.624Z,0
2017-12-19T00:43:20.978Z,0
2017-12-19T00:44:20.380Z,0
2017-12-19T00:45:20.992Z,0
2017-12-19T00:46:20.677Z,0
2017-12-19T00:47:20.966Z,0
2017-12-19T00:48:20.980Z,0
2017-12-19T00:49:20.711Z,0
2017-12-19T00:50:21.049Z,0
2017-12-19T00:51:20.738Z,0
2017-12-19T00:52:21.030Z,0
2017-12-19T00:53:21.029Z,0
2017-12-19T00:54:21.038Z,0
2017-12-19T00:55:21.052Z,0
2017-12-19T00:56:20.784Z,0
2017-12-19T00:57:21.086Z,0
2017-12-19T00:58:20.807Z,0
2017-12-19T00:59:21.101Z,0
2017-12-19T01:00:21.103Z,0
2017-12-19T01:01:21.119Z,0
2017-12-19T01:02:20.860Z,0
2017-12-19T01:03:20.918Z,0
2017-12-19T01:04:20.872Z,0
2017-12-19T01:05:20.936Z,0
2017-12-19T01:06:20.893Z,0
2017-12-19T01:07:21.187Z,0
2017-12-19T01:08:20.921Z,0
2017-12-19T01:09:20.933Z,0
2017-12-19T01:10:20.989Z,0
2017-12-19T01:11:20.979Z,0
2017-12-19T01:12:20.407Z,0
2017-12-19T01:13:20.975Z,0
2017-12-19T01:14:21.262Z,0
2017-12-19T01:15:21.330Z,0
2017-12-19T01:16:21.007Z,0
2017-12-19T01:17:21.291Z,0
2017-12-19T01:18:21.033Z,0
2017-12-19T01:19:21.040Z,0
2017-12-19T01:20:21.327Z,0
2017-12-19T01:21:21.336Z,0
2017-12-19T01:22:21.076Z,0
2017-12-19T01:23:21.368Z,0
2017-12-19T01:24:20.818Z,0
2017-12-19T01:25:21.115Z,0
2017-12-19T01:26:20.565Z,0
2017-12-19T01:27:21.130Z,0
2017-12-19T01:28:21.425Z,0
2017-12-19T01:29:21.427Z,0
2017-12-19T01:30:20.659Z,0
2017-12-19T01:31:21.452Z,0
2017-12-19T01:32:21.185Z,0
2017-12-19T01:33:21.473Z,0
2017-12-19T01:34:21.223Z,0
2017-12-19T01:35:21.547Z,0
2017-12-19T01:36:21.505Z,0
2017-12-19T01:37:21.242Z,0
2017-12-19T01:38:21.258Z,0
2017-12-19T01:39:21.542Z,0
2017-12-19T01:40:21.325Z,0
2017-12-19T01:41:21.340Z,0
2017-12-19T01:42:21.576Z,0
2017-12-19T01:43:21.585Z,0
2017-12-19T01:44:21.593Z,0
2017-12-19T01:45:21.099Z,0
2017-12-19T01:46:21.064Z,0
2017-12-19T01:47:20.800Z,0
2017-12-19T01:48:21.365Z,0
2017-12-19T01:49:21.652Z,0
2017-12-19T01:50:21.388Z,0
2017-12-19T01:51:21.396Z,0
2017-12-19T01:52:21.688Z,0
2017-12-19T01:53:21.691Z,0
2017-12-19T01:54:21.701Z,0
2017-12-19T01:55:21.547Z,0
2017-12-19T01:56:21.450Z,0
2017-12-19T01:57:21.745Z,0
2017-12-19T01:58:21.472Z,0
2017-12-19T01:59:21.766Z,0
2017-12-19T02:00:21.822Z,0
2017-12-19T02:01:21.231Z,0
2017-12-19T02:02:21.239Z,0
2017-12-19T02:03:21.252Z,0
2017-12-19T02:04:21.619Z,0
2017-12-19T02:05:21.826Z,0
2017-12-19T02:06:21.567Z,0
2017-12-19T02:07:21.570Z,0
2017-12-19T02:08:21.586Z,0
2017-12-19T02:09:21.882Z,0
2017-12-19T02:10:21.606Z,0
2017-12-19T02:11:21.616Z,0
2017-12-19T02:12:21.631Z,0
2017-12-19T02:13:21.919Z,0
2017-12-19T02:14:21.928Z,0
2017-12-19T02:15:21.662Z,0
2017-12-19T02:16:21.678Z,0
2017-12-19T02:17:21.963Z,0
2017-12-19T02:18:21.972Z,0
2017-12-19T02:19:21.987Z,0
2017-12-19T02:20:22.039Z,0
2017-12-19T02:21:22.001Z,0
2017-12-19T02:22:21.750Z,0
2017-12-19T02:23:21.753Z,0
2017-12-19T02:24:21.758Z,0
2017-12-19T02:25:21.773Z,0
2017-12-19T02:26:22.097Z,0
2017-12-19T02:27:21.800Z,0
2017-12-19T02:28:21.806Z,0
2017-12-19T02:29:22.102Z,0
2017-12-19T02:30:22.168Z,0
2017-12-19T02:31:21.840Z,0
2017-12-19T02:32:22.132Z,0
2017-12-19T02:33:22.136Z,0
2017-12-19T02:34:22.152Z,0
2017-12-19T02:35:21.935Z,0
2017-12-19T02:36:22.179Z,0
2017-12-19T02:37:21.908Z,0
2017-12-19T02:38:22.198Z,0
2017-12-19T02:39:21.936Z,0
2017-12-19T02:40:22.219Z,0
2017-12-19T02:41:21.948Z,0
2017-12-19T02:42:21.956Z,0
2017-12-19T02:43:21.977Z,0
2017-12-19T02:44:21.986Z,0
2017-12-19T02:45:21.766Z,0
2017-12-19T02:46:22.287Z,0
2017-12-19T02:47:22.013Z,0
2017-12-19T02:48:22.022Z,0
2017-12-19T02:49:22.313Z,0
2017-12-19T02:50:22.049Z,0
2017-12-19T02:51:22.060Z,0
2017-12-19T02:52:22.347Z,0
2017-12-19T02:53:22.091Z,0
2017-12-19T02:54:22.371Z,0
2017-12-19T02:55:22.170Z,0
2017-12-19T02:56:21.841Z,0
2017-12-19T02:57:21.854Z,0
2017-12-19T02:58:22.141Z,0
2017-12-19T02:59:21.877Z,0
2017-12-19T03:00:22.433Z,0
2017-12-19T03:01:21.898Z,0
2017-12-19T03:02:22.462Z,0
2017-12-19T03:03:22.195Z,0
2017-12-19T03:04:22.482Z,0
2017-12-19T03:05:22.218Z,0
2017-12-19T03:06:22.228Z,0
2017-12-19T03:07:22.512Z,0
2017-12-19T03:08:22.526Z,0
2017-12-19T03:09:22.259Z,0
2017-12-19T03:10:22.276Z,0
2017-12-19T03:11:22.282Z,0
2017-12-19T03:12:22.574Z,0
2017-12-19T03:13:22.030Z,0
2017-12-19T03:14:22.321Z,0
2017-12-19T03:15:22.374Z,0
2017-12-19T03:16:22.058Z,0
2017-12-19T03:17:22.349Z,0
2017-12-19T03:18:22.359Z,0
2017-12-19T03:19:22.646Z,0
2017-12-19T03:20:22.713Z,0
2017-12-19T03:21:22.684Z,0
2017-12-19T03:22:22.402Z,0
2017-12-19T03:23:22.413Z,0
2017-12-19T03:24:22.147Z,0
2017-12-19T03:25:22.719Z,0
2017-12-19T03:26:22.443Z,0
2017-12-19T03:27:22.759Z,0
2017-12-19T03:28:22.471Z,0
2017-12-19T03:29:22.480Z,0
2017-12-19T03:30:22.500Z,0
2017-12-19T03:31:22.800Z,0
2017-12-19T03:32:22.236Z,0
2017-12-19T03:33:22.804Z,0
2017-12-19T03:34:22.532Z,0
2017-12-19T03:35:22.750Z,0
2017-12-19T03:36:22.566Z,0
2017-12-19T03:37:22.575Z,0
2017-12-19T03:38:22.304Z,0
2017-12-19T03:39:22.595Z,0
2017-12-19T03:40:22.326Z,0
2017-12-19T03:41:22.624Z,0
2017-12-19T03:42:22.901Z,0
2017-12-19T03:43:22.921Z,0
2017-12-19T03:44:22.955Z,0
2017-12-19T03:45:22.930Z,0
2017-12-19T03:46:22.663Z,0
2017-12-19T03:47:22.677Z,0
2017-12-19T03:48:22.971Z,0
2017-12-19T03:49:22.980Z,0
2017-12-19T03:50:22.714Z,0
2017-12-19T03:51:22.995Z,0
2017-12-19T03:52:23.063Z,0
2017-12-19T03:53:22.750Z,0
2017-12-19T03:54:23.028Z,0
2017-12-19T03:55:23.049Z,0
2017-12-19T03:56:22.824Z,0
2017-12-19T03:57:22.788Z,0
2017-12-19T03:58:22.802Z,0
2017-12-19T03:59:23.089Z,0
2017-12-19T04:00:22.546Z,0
2017-12-19T04:01:23.122Z,0
2017-12-19T04:02:22.850Z,0
2017-12-19T04:03:22.853Z,0
2017-12-19T04:04:22.586Z,0
2017-12-19T04:05:22.607Z,0
2017-12-19T04:06:23.161Z,0
2017-12-19T04:07:23.173Z,0
2017-12-19T04:08:22.906Z,0
2017-12-19T04:09:23.196Z,0
2017-12-19T04:10:22.942Z,0
2017-12-19T04:11:23.265Z,0
2017-12-19T04:12:23.229Z,0
2017-12-19T04:13:23.239Z,0
2017-12-19T04:14:22.982Z,0
2017-12-19T04:15:22.713Z,0
2017-12-19T04:16:22.724Z,0
2017-12-19T04:17:22.725Z,0
2017-12-19T04:18:23.022Z,0
2017-12-19T04:19:23.308Z,0
2017-12-19T04:20:23.039Z,0
2017-12-19T04:21:22.823Z,0
2017-12-19T04:22:23.338Z,0
2017-12-19T04:23:23.344Z,0
2017-12-19T04:24:23.362Z,0
2017-12-19T04:25:23.091Z,0
2017-12-19T04:26:23.432Z,0
2017-12-19T04:27:23.118Z,0
2017-12-19T04:28:22.861Z,0
2017-12-19T04:29:23.414Z,0
2017-12-19T04:30:23.433Z,0
2017-12-19T04:31:23.485Z,0
2017-12-19T04:32:22.900Z,0
2017-12-19T04:33:23.180Z,0
2017-12-19T04:34:23.470Z,0
2017-12-19T04:35:23.479Z,0
2017-12-19T04:36:23.538Z,0
2017-12-19T04:37:23.508Z,0
2017-12-19T04:38:22.962Z,0
2017-12-19T04:39:23.524Z,0
2017-12-19T04:40:23.592Z,0
2017-12-19T04:41:23.602Z,0
2017-12-19T04:42:23.278Z,0
2017-12-19T04:43:23.566Z,0
2017-12-19T04:44:22.748Z,0
2017-12-19T04:45:23.591Z,0
2017-12-19T04:46:23.328Z,0
2017-12-19T04:47:23.337Z,0
2017-12-19T04:48:23.340Z,0
2017-12-19T04:49:23.077Z,0
2017-12-19T04:50:23.652Z,0
2017-12-19T04:51:23.701Z,0
2017-12-19T04:52:23.390Z,0
2017-12-19T04:53:23.696Z,0
2017-12-19T04:54:23.140Z,0
2017-12-19T04:55:23.705Z,0
2017-12-19T04:56:23.484Z,0
2017-12-19T04:57:23.443Z,0
2017-12-19T04:58:23.732Z,0
2017-12-19T04:59:23.740Z,0
2017-12-19T05:00:23.749Z,0
2017-12-19T05:01:23.487Z,0
2017-12-19T05:02:23.779Z,0
2017-12-19T05:03:23.516Z,0
2017-12-19T05:04:23.799Z,0
2017-12-19T05:05:23.529Z,0
2017-12-19T05:06:23.874Z,0
2017-12-19T05:07:23.827Z,0
2017-12-19T05:08:23.563Z,0
2017-12-19T05:09:23.857Z,0
2017-12-19T05:10:23.583Z,0
2017-12-19T05:11:23.870Z,0
2017-12-19T05:12:23.603Z,0
2017-12-19T05:13:23.889Z,0
2017-12-19T05:14:23.663Z,0
2017-12-19T05:15:23.651Z,0
2017-12-19T05:16:23.645Z,0
2017-12-19T05:17:23.659Z,0
2017-12-19T05:18:23.942Z,0
2017-12-19T05:19:23.678Z,0
2017-12-19T05:20:23.972Z,0
2017-12-19T05:21:23.984Z,0
2017-12-19T05:22:23.442Z,0
2017-12-19T05:23:23.446Z,0
2017-12-19T05:24:23.737Z,0
2017-12-19T05:25:23.747Z,0
2017-12-19T05:26:24.080Z,0
2017-12-19T05:27:24.087Z,0
2017-12-19T05:28:23.783Z,0
2017-12-19T05:29:23.787Z,0
2017-12-19T05:30:23.527Z,0
2017-12-19T05:31:24.152Z,0
2017-12-19T05:32:23.819Z,0
2017-12-19T05:33:24.167Z,0
2017-12-19T05:34:23.569Z,0
2017-12-19T05:35:23.572Z,0
2017-12-19T05:36:24.199Z,0
2017-12-19T05:37:24.150Z,0
2017-12-19T05:38:24.164Z,0
2017-12-19T05:39:24.180Z,0
2017-12-19T05:40:23.911Z,0
2017-12-19T05:41:23.917Z,0
2017-12-19T05:42:23.929Z,0
2017-12-19T05:43:23.947Z,0
2017-12-19T05:44:23.959Z,0
2017-12-19T05:45:23.691Z,0
2017-12-19T05:46:24.247Z,0
2017-12-19T05:47:23.990Z,0
2017-12-19T05:48:24.006Z,0
2017-12-19T05:49:24.284Z,0
2017-12-19T05:50:24.018Z,0
2017-12-19T05:51:24.306Z,0
2017-12-19T05:52:23.762Z,0
2017-12-19T05:53:24.326Z,0
2017-12-19T05:54:24.345Z,0
2017-12-19T05:55:24.356Z,0
2017-12-19T05:56:24.409Z,0
2017-12-19T05:57:24.373Z,0
2017-12-19T05:58:24.382Z,0
2017-12-19T05:59:24.391Z,0
2017-12-19T06:00:24.127Z,0
2017-12-19T06:01:24.136Z,0
2017-12-19T06:02:24.152Z,0
2017-12-19T06:03:24.437Z,0
2017-12-19T06:04:24.517Z,0
2017-12-19T06:05:24.456Z,0
2017-12-19T06:06:23.969Z,0
2017-12-19T06:07:24.484Z,0
2017-12-19T06:08:24.211Z,0
2017-12-19T06:09:24.224Z,0
2017-12-19T06:10:24.232Z,0
2017-12-19T06:11:24.247Z,0
2017-12-19T06:12:23.981Z,0
2017-12-19T06:13:24.262Z,0
2017-12-19T06:14:24.556Z,0
2017-12-19T06:15:24.290Z,0
2017-12-19T06:16:24.301Z,0
2017-12-19T06:17:24.311Z,0
2017-12-19T06:18:24.600Z,0
2017-12-19T06:19:24.611Z,0
2017-12-19T06:20:24.618Z,0
2017-12-19T06:21:23.798Z,0
2017-12-19T06:22:24.642Z,0
2017-12-19T06:23:24.371Z,0
2017-12-19T06:24:24.107Z,0
2017-12-19T06:25:24.682Z,0
2017-12-19T06:26:24.741Z,0
2017-12-19T06:27:24.422Z,0
2017-12-19T06:28:24.152Z,0
2017-12-19T06:29:24.437Z,0
2017-12-19T06:30:24.726Z,0
2017-12-19T06:31:24.844Z,0
2017-12-19T06:32:24.751Z,0
2017-12-19T06:33:24.960Z,0
2017-12-19T06:34:24.788Z,0
2017-12-19T06:35:24.505Z,0
2017-12-19T06:36:24.561Z,0
2017-12-19T06:37:24.533Z,0
2017-12-19T06:38:24.261Z,0
2017-12-19T06:39:24.824Z,0
2017-12-19T06:40:24.853Z,0
2017-12-19T06:41:24.845Z,0
2017-12-19T06:42:24.305Z,0
2017-12-19T06:43:24.604Z,0
2017-12-19T06:44:24.603Z,0
2017-12-19T06:45:24.612Z,0
2017-12-19T06:46:24.899Z,0
2017-12-19T06:47:24.912Z,0
2017-12-19T06:48:24.648Z,4
2017-12-19T06:49:24.930Z,0
2017-12-19T06:50:24.672Z,0
2017-12-19T06:51:24.954Z,0
2017-12-19T06:52:24.696Z,0
2017-12-19T06:53:24.997Z,4
2017-12-19T06:54:24.706Z,4
2017-12-19T06:55:24.742Z,4
2017-12-19T06:56:24.950Z,0
2017-12-19T06:57:25.278Z,4
2017-12-19T06:58:24.920Z,4
2017-12-19T06:59:25.037Z,4
2017-12-19T07:00:24.612Z,8
2017-12-19T07:01:25.116Z,4
2017-12-19T07:02:25.080Z,8
2017-12-19T07:03:24.529Z,8
2017-12-19T07:04:25.104Z,8
2017-12-19T07:05:25.100Z,8
2017-12-19T07:06:25.421Z,8
2017-12-19T07:07:24.848Z,12
2017-12-19T07:08:25.153Z,8
2017-12-19T07:09:25.200Z,12
2017-12-19T07:10:25.159Z,12
2017-12-19T07:11:25.239Z,8
2017-12-19T07:12:24.899Z,12
2017-12-19T07:13:24.916Z,12
2017-12-19T07:14:24.925Z,16
2017-12-19T07:15:25.223Z,12
2017-12-19T07:16:24.951Z,12
2017-12-19T07:17:24.958Z,16
2017-12-19T07:18:24.932Z,16
2017-12-19T07:19:24.987Z,20
2017-12-19T07:20:24.995Z,20
2017-12-19T07:21:25.278Z,20
2017-12-19T07:22:25.010Z,24
2017-12-19T07:23:25.020Z,24
2017-12-19T07:24:25.035Z,32
2017-12-19T07:25:24.773Z,32
2017-12-19T07:26:25.365Z,36
2017-12-19T07:27:25.068Z,36
2017-12-19T07:28:24.799Z,32
2017-12-19T07:29:25.094Z,36
2017-12-19T07:30:25.377Z,36
2017-12-19T07:31:25.384Z,40
2017-12-19T07:32:24.846Z,40
2017-12-19T07:33:25.412Z,48
2017-12-19T07:34:25.420Z,52
2017-12-19T07:35:24.872Z,56
2017-12-19T07:36:25.160Z,56
2017-12-19T07:37:25.176Z,60
2017-12-19T07:38:25.188Z,64
2017-12-19T07:39:24.923Z,64
2017-12-19T07:40:25.492Z,60
2017-12-19T07:41:25.218Z,60
2017-12-19T07:42:25.561Z,56
2017-12-19T07:43:25.242Z,60
2017-12-19T07:44:25.525Z,64
2017-12-19T07:45:25.275Z,68
2017-12-19T07:46:25.274Z,80
2017-12-19T07:47:25.607Z,84
2017-12-19T07:48:25.574Z,80
2017-12-19T07:49:25.575Z,76
2017-12-19T07:50:25.594Z,80
2017-12-19T07:51:25.603Z,80
2017-12-19T07:52:25.338Z,80
2017-12-19T07:53:25.629Z,80
2017-12-19T07:54:25.633Z,88
2017-12-19T07:55:25.368Z,96
2017-12-19T07:56:25.661Z,104
2017-12-19T07:57:25.440Z,100
2017-12-19T07:58:25.401Z,104
2017-12-19T07:59:25.412Z,104
2017-12-19T08:00:25.702Z,96
2017-12-19T08:01:25.439Z,108
2017-12-19T08:02:25.809Z,112
2017-12-19T08:03:25.458Z,104
2017-12-19T08:04:25.465Z,96
2017-12-19T08:05:25.480Z,100
2017-12-19T08:06:25.489Z,116
2017-12-19T08:07:25.829Z,128
2017-12-19T08:08:25.510Z,132
2017-12-19T08:09:25.802Z,128
2017-12-19T08:10:25.818Z,128
2017-12-19T08:11:25.545Z,128
2017-12-19T08:12:25.894Z,128
2017-12-19T08:13:25.587Z,128
2017-12-19T08:14:25.940Z,136
2017-12-19T08:15:25.865Z,140
2017-12-19T08:16:25.599Z,144
2017-12-19T08:17:25.660Z,148
2017-12-19T08:18:25.343Z,152
2017-12-19T08:19:25.912Z,160
2017-12-19T08:20:25.920Z,156
2017-12-19T08:21:25.931Z,176
2017-12-19T08:22:25.992Z,192
2017-12-19T08:23:26.014Z,192
2017-12-19T08:24:25.980Z,200
2017-12-19T08:25:25.696Z,208
2017-12-19T08:26:25.712Z,212
2017-12-19T08:27:25.722Z,224
2017-12-19T08:28:26.012Z,200
2017-12-19T08:29:26.017Z,196
2017-12-19T08:30:26.036Z,224
2017-12-19T08:31:25.491Z,228
2017-12-19T08:32:26.052Z,216
2017-12-19T08:33:25.788Z,224
2017-12-19T08:34:25.800Z,232
2017-12-19T08:35:25.814Z,248
2017-12-19T08:36:26.096Z,260
2017-12-19T08:37:25.834Z,260
2017-12-19T08:38:25.852Z,244
2017-12-19T08:39:26.133Z,264
2017-12-19T08:40:26.138Z,252
2017-12-19T08:41:25.661Z,272
2017-12-19T08:42:26.198Z,304
2017-12-19T08:43:26.187Z,320
2017-12-19T08:44:26.184Z,328
2017-12-19T08:45:25.923Z,348
2017-12-19T08:46:26.214Z,372
2017-12-19T08:47:26.220Z,360
2017-12-19T08:48:25.952Z,304
2017-12-19T08:49:25.975Z,284
2017-12-19T08:50:25.696Z,272
2017-12-19T08:51:26.268Z,288
2017-12-19T08:52:25.999Z,280
2017-12-19T08:53:26.011Z,260
2017-12-19T08:54:26.028Z,260
2017-12-19T08:55:26.311Z,284
2017-12-19T08:56:26.045Z,312
2017-12-19T08:57:25.778Z,348
2017-12-19T08:58:26.345Z,328
2017-12-19T08:59:26.072Z,348
2017-12-19T09:00:26.087Z,372
2017-12-19T09:01:26.379Z,380
2017-12-19T09:02:26.142Z,416
2017-12-19T09:03:26.400Z,432
2017-12-19T09:04:25.852Z,468
2017-12-19T09:05:26.140Z,488
2017-12-19T09:06:26.155Z,488
2017-12-19T09:07:25.905Z,456
2017-12-19T09:08:26.220Z,424
2017-12-19T09:09:26.458Z,368
2017-12-19T09:10:26.192Z,424
2017-12-19T09:11:26.207Z,608
2017-12-19T09:12:26.541Z,464
2017-12-19T09:13:26.508Z,460
2017-12-19T09:14:26.545Z,472
2017-12-19T09:15:26.252Z,444
2017-12-19T09:16:26.271Z,360
2017-12-19T09:17:26.278Z,364
2017-12-19T09:18:26.570Z,372
2017-12-19T09:19:26.299Z,404
2017-12-19T09:20:26.035Z,400
2017-12-19T09:21:26.598Z,420
2017-12-19T09:22:26.605Z,496
2017-12-19T09:23:26.347Z,656
2017-12-19T09:24:26.633Z,756
2017-12-19T09:25:26.645Z,756
2017-12-19T09:26:26.386Z,676
2017-12-19T09:27:26.663Z,580
2017-12-19T09:28:26.399Z,524
2017-12-19T09:29:26.413Z,492
2017-12-19T09:30:26.694Z,548
2017-12-19T09:31:26.705Z,672
2017-12-19T09:32:26.444Z,672
2017-12-19T09:33:26.503Z,616
2017-12-19T09:34:26.466Z,568
2017-12-19T09:35:26.476Z,560
2017-12-19T09:36:26.770Z,580
2017-12-19T09:37:26.508Z,572
2017-12-19T09:38:26.840Z,608
2017-12-19T09:39:26.523Z,556
2017-12-19T09:40:26.264Z,580
2017-12-19T09:41:26.546Z,692
2017-12-19T09:42:26.278Z,696
2017-12-19T09:43:26.892Z,712
2017-12-19T09:44:26.858Z,604
2017-12-19T09:45:26.319Z,584
2017-12-19T09:46:26.877Z,604
2017-12-19T09:47:26.614Z,592
2017-12-19T09:48:26.627Z,528
2017-12-19T09:49:26.913Z,572
2017-12-19T09:50:26.659Z,612
2017-12-19T09:51:26.392Z,580
2017-12-19T09:52:26.877Z,548
2017-12-19T09:53:26.459Z,520
2017-12-19T09:54:26.694Z,428
2017-12-19T09:55:27.003Z,380
2017-12-19T09:56:26.717Z,380
2017-12-19T09:57:26.724Z,372
2017-12-19T09:58:27.068Z,372
2017-12-19T09:59:27.028Z,436
2017-12-19T10:00:27.046Z,560
2017-12-19T10:01:27.046Z,600
2017-12-19T10:02:27.063Z,484
2017-12-19T10:03:27.124Z,432
2017-12-19T10:04:27.157Z,484
2017-12-19T10:05:27.100Z,564
2017-12-19T10:06:27.056Z,544
2017-12-19T10:07:27.120Z,520
2017-12-19T10:08:26.808Z,484
2017-12-19T10:09:26.833Z,448
2017-12-19T10:10:27.121Z,476
2017-12-19T10:11:26.850Z,484
2017-12-19T10:12:26.596Z,472
2017-12-19T10:13:27.138Z,500
2017-12-19T10:14:27.390Z,520
2017-12-19T10:15:27.170Z,556
2017-12-19T10:16:27.170Z,584
2017-12-19T10:17:27.189Z,616
2017-12-19T10:18:27.174Z,608
2017-12-19T10:19:26.752Z,548
2017-12-19T10:20:27.281Z,492
2017-12-19T10:21:26.740Z,476
2017-12-19T10:22:27.024Z,496
2017-12-19T10:23:27.021Z,472
2017-12-19T10:24:27.459Z,452
2017-12-19T10:25:26.771Z,460
2017-12-19T10:26:27.346Z,452
2017-12-19T10:27:27.350Z,456
2017-12-19T10:28:27.084Z,504
2017-12-19T10:29:26.816Z,504
2017-12-19T10:30:27.380Z,484
2017-12-19T10:31:27.112Z,496
2017-12-19T10:32:27.403Z,604
2017-12-19T10:33:27.459Z,684
2017-12-19T10:34:26.873Z,832
2017-12-19T10:35:26.892Z,868
2017-12-19T10:36:27.452Z,936
2017-12-19T10:37:27.184Z,1176
2017-12-19T10:38:26.927Z,1136
2017-12-19T10:39:27.209Z,1128
2017-12-19T10:40:27.219Z,1004
2017-12-19T10:41:27.232Z,1096
2017-12-19T10:42:27.524Z,1272
2017-12-19T10:43:27.260Z,1360
2017-12-19T10:44:27.321Z,1148
2017-12-19T10:45:27.644Z,1000
2017-12-19T10:46:27.019Z,944
2017-12-19T10:47:27.585Z,984
2017-12-19T10:48:27.323Z,1020
2017-12-19T10:49:27.321Z,1064
2017-12-19T10:50:27.616Z,912
2017-12-19T10:51:27.349Z,816
2017-12-19T10:52:27.364Z,824
2017-12-19T10:53:27.116Z,700
2017-12-19T10:54:27.430Z,628
2017-12-19T10:55:27.681Z,596
2017-12-19T10:56:27.681Z,608
2017-12-19T10:57:27.434Z,620
2017-12-19T10:58:27.708Z,560
2017-12-19T10:59:27.448Z,492
2017-12-19T11:00:27.730Z,412
2017-12-19T11:01:27.743Z,376
2017-12-19T11:02:27.794Z,400
2017-12-19T11:03:27.496Z,444
2017-12-19T11:04:27.552Z,448
2017-12-19T11:05:27.793Z,400
2017-12-19T11:06:27.529Z,368
2017-12-19T11:07:27.264Z,384
2017-12-19T11:08:27.280Z,308
2017-12-19T11:09:27.618Z,272
2017-12-19T11:10:27.847Z,276
2017-12-19T11:11:27.585Z,248
2017-12-19T11:12:27.602Z,268
2017-12-19T11:13:27.614Z,300
2017-12-19T11:14:27.949Z,260
2017-12-19T11:15:27.903Z,280
2017-12-19T11:16:27.640Z,316
2017-12-19T11:17:27.658Z,312
2017-12-19T11:18:27.941Z,304
2017-12-19T11:19:27.956Z,264
2017-12-19T11:20:27.986Z,240
2017-12-19T11:21:27.431Z,272
2017-12-19T11:22:28.001Z,256
2017-12-19T11:23:27.452Z,284
2017-12-19T11:24:28.089Z,352
2017-12-19T11:25:28.033Z,384
2017-12-19T11:26:27.482Z,348
2017-12-19T11:27:27.772Z,328
2017-12-19T11:28:27.507Z,328
2017-12-19T11:29:28.125Z,332
2017-12-19T11:30:28.089Z,364
2017-12-19T11:31:27.544Z,320
2017-12-19T11:32:28.102Z,332
2017-12-19T11:33:28.126Z,324
2017-12-19T11:34:28.179Z,340
2017-12-19T11:35:28.144Z,356
2017-12-19T11:36:28.156Z,332
2017-12-19T11:37:27.890Z,324
2017-12-19T11:38:27.897Z,436
2017-12-19T11:39:27.686Z,380
2017-12-19T11:40:27.650Z,356
2017-12-19T11:41:28.213Z,368
2017-12-19T11:42:28.007Z,408
2017-12-19T11:43:27.966Z,424
2017-12-19T11:44:27.693Z,344
2017-12-19T11:45:28.258Z,368
2017-12-19T11:46:27.994Z,300
2017-12-19T11:47:28.006Z,328
2017-12-19T11:48:28.290Z,328
2017-12-19T11:49:28.314Z,352
2017-12-19T11:50:28.041Z,340
2017-12-19T11:51:28.333Z,340
2017-12-19T11:52:28.348Z,376
2017-12-19T11:53:28.074Z,348
2017-12-19T11:54:28.156Z,324
2017-12-19T11:55:28.378Z,312
2017-12-19T11:56:27.836Z,292
2017-12-19T11:57:28.119Z,308
2017-12-19T11:58:28.410Z,324
2017-12-19T11:59:28.261Z,264
2017-12-19T12:00:27.883Z,316
2017-12-19T12:01:28.169Z,332
2017-12-19T12:02:28.184Z,324
2017-12-19T12:03:28.473Z,320
2017-12-19T12:04:28.258Z,328
2017-12-19T12:05:28.499Z,268
2017-12-19T12:06:28.507Z,328
2017-12-19T12:07:27.963Z,320
2017-12-19T12:08:28.249Z,284
2017-12-19T12:09:28.270Z,304
2017-12-19T12:10:28.553Z,332
2017-12-19T12:11:28.562Z,332
2017-12-19T12:12:28.300Z,296
2017-12-19T12:13:28.585Z,360
2017-12-19T12:14:28.322Z,316
2017-12-19T12:15:28.611Z,300
2017-12-19T12:16:28.359Z,392
2017-12-19T12:17:28.631Z,356
2017-12-19T12:18:28.091Z,392
2017-12-19T12:19:28.381Z,464
2017-12-19T12:20:28.676Z,456
2017-12-19T12:21:28.402Z,444
2017-12-19T12:22:28.144Z,512
2017-12-19T12:23:28.432Z,468
2017-12-19T12:24:28.718Z,452
2017-12-19T12:25:28.454Z,440
2017-12-19T12:26:28.736Z,392
2017-12-19T12:27:28.750Z,376
2017-12-19T12:28:28.765Z,348
2017-12-19T12:29:28.773Z,348
2017-12-19T12:30:28.516Z,348
2017-12-19T12:31:28.244Z,332
2017-12-19T12:32:28.535Z,324
2017-12-19T12:33:28.549Z,300
2017-12-19T12:34:28.564Z,324
2017-12-19T12:35:28.840Z,332
2017-12-19T12:36:28.858Z,372
2017-12-19T12:37:28.314Z,320
2017-12-19T12:38:28.618Z,352
2017-12-19T12:39:28.340Z,360
2017-12-19T12:40:28.676Z,348
2017-12-19T12:41:28.919Z,404
2017-12-19T12:42:28.648Z,340
2017-12-19T12:43:28.661Z,360
2017-12-19T12:44:28.672Z,376
2017-12-19T12:45:29.012Z,352
2017-12-19T12:46:28.976Z,356
2017-12-19T12:47:28.706Z,364
2017-12-19T12:48:28.996Z,360
2017-12-19T12:49:28.736Z,372
2017-12-19T12:50:28.745Z,384
2017-12-19T12:51:28.481Z,356
2017-12-19T12:52:28.770Z,312
2017-12-19T12:53:28.235Z,284
2017-12-19T12:54:29.069Z,268
2017-12-19T12:55:28.857Z,260
2017-12-19T12:56:29.090Z,256
2017-12-19T12:57:28.551Z,300
2017-12-19T12:58:29.113Z,288
2017-12-19T12:59:28.856Z,288
2017-12-19T13:00:28.869Z,288
2017-12-19T13:01:28.595Z,312
2017-12-19T13:02:29.155Z,292
2017-12-19T13:03:29.174Z,256
2017-12-19T13:04:29.196Z,312
2017-12-19T13:05:28.964Z,272
2017-12-19T13:06:28.934Z,264
2017-12-19T13:07:28.942Z,288
2017-12-19T13:08:28.679Z,280
2017-12-19T13:09:29.245Z,280
2017-12-19T13:10:29.256Z,308
2017-12-19T13:11:28.991Z,300
2017-12-19T13:12:29.000Z,260
2017-12-19T13:13:29.019Z,308
2017-12-19T13:14:29.037Z,264
2017-12-19T13:15:29.313Z,260
2017-12-19T13:16:29.328Z,264
2017-12-19T13:17:29.332Z,248
2017-12-19T13:18:29.077Z,248
2017-12-19T13:19:29.082Z,232
2017-12-19T13:20:29.371Z,248
2017-12-19T13:21:29.121Z,240
2017-12-19T13:22:29.465Z,260
2017-12-19T13:23:29.407Z,224
2017-12-19T13:24:29.137Z,228
2017-12-19T13:25:29.429Z,216
2017-12-19T13:26:29.452Z,196
2017-12-19T13:27:29.450Z,200
2017-12-19T13:28:29.193Z,192
2017-12-19T13:29:29.484Z,204
2017-12-19T13:30:29.485Z,200
2017-12-19T13:31:28.943Z,196
2017-12-19T13:32:29.515Z,212
2017-12-19T13:33:29.244Z,220
2017-12-19T13:34:29.536Z,188
2017-12-19T13:35:29.320Z,192
2017-12-19T13:36:29.556Z,184
2017-12-19T13:37:29.569Z,216
2017-12-19T13:38:29.582Z,224
2017-12-19T13:39:29.597Z,248
2017-12-19T13:40:29.604Z,240
2017-12-19T13:41:29.338Z,228
2017-12-19T13:42:29.362Z,212
2017-12-19T13:43:29.647Z,204
2017-12-19T13:44:29.650Z,160
2017-12-19T13:45:29.661Z,180
2017-12-19T13:46:29.395Z,196
2017-12-19T13:47:29.134Z,184
2017-12-19T13:48:29.423Z,164
2017-12-19T13:49:29.156Z,168
2017-12-19T13:50:29.452Z,136
2017-12-19T13:51:29.461Z,148
2017-12-19T13:52:29.190Z,148
2017-12-19T13:53:29.198Z,156
2017-12-19T13:54:29.886Z,152
2017-12-19T13:55:29.237Z,148
2017-12-19T13:56:29.243Z,168
2017-12-19T13:57:29.803Z,176
2017-12-19T13:58:29.880Z,172
2017-12-19T13:59:29.829Z,168
2017-12-19T14:00:29.573Z,132
2017-12-19T14:01:29.853Z,132
2017-12-19T14:02:29.590Z,116
2017-12-19T14:03:29.896Z,132
2017-12-19T14:04:29.610Z,128
2017-12-19T14:05:29.945Z,108
2017-12-19T14:06:29.631Z,120
2017-12-19T14:07:29.365Z,124
2017-12-19T14:08:29.931Z,112
2017-12-19T14:09:29.686Z,120
2017-12-19T14:10:30.011Z,128
2017-12-19T14:11:29.686Z,108
2017-12-19T14:12:29.700Z,108
2017-12-19T14:13:29.994Z,104
2017-12-19T14:14:29.723Z,100
2017-12-19T14:15:30.062Z,104
2017-12-19T14:16:29.750Z,96
2017-12-19T14:17:29.481Z,96